Inver Grove Heights, Minnesota
Current Conditions -  °F | °C
As of 12:50 AM on Sunday 26 Oct 2014 (Local Time) from KSGS Reporting Station
Clear Clear  
Wind Chill: 42°   Ceiling: Unl
Heat Index: 42°   Visibility: 10mi
Dew Point: 29°   Wind: 0mph
Humidity: 60%   Direction: NA
Pressure: 30.04"   Gusts: NA
Location:  44.83°N, 93.06°W
Report Text: KSGS 260550Z AUTO 00000KT 10SM CLR 06/M01 A3004 RMK AO2 T00581015
Loading
Personal Weather Stations






























Interactive Weather Map
Tropical Storm Tracking
New forecast layout! Learn more

10-Day Weather Forecast

Advertisements
Track Severe Weather on mobile